createdAt,value
2023-04-07T00:00:00.681Z,6.51
2023-04-07T00:01:00.650Z,6.31
2023-04-07T00:02:00.712Z,6.05
2023-04-07T00:03:00.682Z,5.75
2023-04-07T00:04:00.874Z,5.62
2023-04-07T00:05:00.655Z,5.53
2023-04-07T00:06:00.628Z,5.71
2023-04-07T00:07:00.610Z,5.87
2023-04-07T00:08:00.774Z,5.80
2023-04-07T00:09:00.604Z,5.89
2023-04-07T00:10:00.734Z,6.02
2023-04-07T00:11:00.616Z,6.19
2023-04-07T00:12:04.031Z,6.24
2023-04-07T00:13:00.567Z,6.28
2023-04-07T00:14:00.578Z,6.28
2023-04-07T00:15:00.600Z,6.30
2023-04-07T00:16:00.655Z,6.33
2023-04-07T00:17:00.569Z,6.35
2023-04-07T00:18:00.606Z,6.33
2023-04-07T00:19:00.566Z,6.31
2023-04-07T00:20:00.554Z,6.26
2023-04-07T00:21:00.556Z,6.24
2023-04-07T00:22:00.554Z,6.17
2023-04-07T00:23:00.563Z,6.27
2023-04-07T00:24:00.529Z,6.26
2023-04-07T00:25:00.538Z,6.27
2023-04-07T00:26:00.566Z,6.27
2023-04-07T00:27:00.502Z,6.27
2023-04-07T00:28:00.532Z,6.31
2023-04-07T00:29:00.529Z,6.31
2023-04-07T00:30:00.506Z,6.31
2023-04-07T00:31:00.544Z,6.41
2023-04-07T00:32:00.515Z,6.41
2023-04-07T00:33:00.546Z,6.41
2023-04-07T00:34:00.527Z,6.48
2023-04-07T00:35:02.381Z,6.39
2023-04-07T00:36:00.503Z,6.45
2023-04-07T00:37:00.468Z,6.35
2023-04-07T00:38:00.480Z,6.38
2023-04-07T00:39:00.446Z,6.28
2023-04-07T00:40:00.473Z,6.33
2023-04-07T00:41:00.446Z,6.26
2023-04-07T00:42:00.458Z,6.30
2023-04-07T00:43:00.437Z,6.31
2023-04-07T00:44:00.454Z,6.19
2023-04-07T00:45:00.412Z,6.24
2023-04-07T00:46:00.478Z,6.26
2023-04-07T00:47:00.424Z,6.19
2023-04-07T00:48:00.509Z,6.16
2023-04-07T00:49:00.398Z,6.26
2023-04-07T00:50:00.436Z,6.11
2023-04-07T00:51:00.401Z,6.07
2023-04-07T00:52:00.399Z,6.09
2023-04-07T00:53:00.369Z,6.11
2023-04-07T00:54:00.399Z,6.05
2023-04-07T00:55:00.387Z,6.08
2023-04-07T00:56:00.421Z,6.01
2023-04-07T00:57:00.353Z,6.08
2023-04-07T00:58:00.360Z,6.09
2023-04-07T00:59:00.369Z,6.14
2023-04-07T01:00:00.354Z,6.02
2023-04-07T01:01:00.371Z,6.02
2023-04-07T01:02:00.426Z,6.05
2023-04-07T01:03:00.492Z,5.99
2023-04-07T01:04:00.572Z,5.97
2023-04-07T01:05:00.331Z,5.99
2023-04-07T01:06:00.319Z,5.90
2023-04-07T01:07:00.307Z,6.07
2023-04-07T01:08:00.308Z,6.02
2023-04-07T01:09:00.308Z,5.94
2023-04-07T01:10:00.322Z,6.01
2023-04-07T01:11:00.301Z,5.94
2023-04-07T01:12:00.304Z,5.93
2023-04-07T01:13:00.282Z,5.90
2023-04-07T01:14:00.312Z,5.93
2023-04-07T01:15:00.306Z,5.91
2023-04-07T01:16:00.308Z,5.84
2023-04-07T01:17:00.254Z,5.90
2023-04-07T01:18:00.301Z,5.90
2023-04-07T01:19:00.246Z,5.86
2023-04-07T01:20:00.284Z,5.87
2023-04-07T01:21:00.233Z,5.84
2023-04-07T01:22:00.264Z,5.83
2023-04-07T01:23:00.216Z,5.94
2023-04-07T01:24:00.222Z,5.90
2023-04-07T01:25:00.205Z,6.04
2023-04-07T01:26:00.274Z,6.05
2023-04-07T01:27:00.191Z,6.02
2023-04-07T01:28:00.204Z,6.04
2023-04-07T01:29:00.173Z,6.07
2023-04-07T01:30:00.190Z,6.09
2023-04-07T01:31:00.179Z,6.07
2023-04-07T01:32:00.222Z,6.02
2023-04-07T01:33:00.222Z,6.11
2023-04-07T01:34:00.166Z,6.05
2023-04-07T01:35:00.176Z,6.08
2023-04-07T01:36:00.171Z,6.02
2023-04-07T01:37:00.184Z,6.02
2023-04-07T01:38:00.156Z,5.91
2023-04-07T01:39:00.142Z,5.97
2023-04-07T01:40:00.187Z,5.91
2023-04-07T01:41:00.117Z,5.89
2023-04-07T01:42:00.139Z,5.91
2023-04-07T01:43:00.131Z,5.94
2023-04-07T01:44:00.124Z,5.94
2023-04-07T01:45:00.192Z,5.94
2023-04-07T01:46:00.151Z,5.86
2023-04-07T01:47:00.105Z,5.89
2023-04-07T01:48:00.181Z,5.91
2023-04-07T01:49:00.516Z,5.90
2023-04-07T01:50:00.126Z,5.93
2023-04-07T01:51:00.099Z,5.86
2023-04-07T01:52:00.118Z,5.84
2023-04-07T01:53:00.104Z,5.89
2023-04-07T01:54:00.116Z,5.94
2023-04-07T01:55:00.082Z,5.89
2023-04-07T01:56:00.107Z,5.86
2023-04-07T01:57:00.029Z,5.87
2023-04-07T01:58:00.062Z,5.84
2023-04-07T01:59:00.032Z,5.94
2023-04-07T02:00:00.052Z,5.86
2023-04-07T02:01:00.078Z,5.83
2023-04-07T02:02:00.128Z,5.86
2023-04-07T02:03:00.142Z,5.80
2023-04-07T02:04:00.357Z,5.75
2023-04-07T02:05:00.038Z,5.80
2023-04-07T02:06:00.002Z,5.80
2023-04-07T02:07:00.004Z,5.80
2023-04-07T02:08:00.001Z,5.86
2023-04-07T02:09:00.002Z,5.87
2023-04-07T02:10:00.045Z,5.80
2023-04-07T02:10:59.963Z,5.82
2023-04-07T02:11:59.980Z,5.82
2023-04-07T02:12:59.950Z,5.82
2023-04-07T02:13:59.959Z,5.66
2023-04-07T02:14:59.943Z,5.71
2023-04-07T02:15:59.992Z,5.66
2023-04-07T02:16:59.948Z,5.80
2023-04-07T02:17:59.984Z,5.82
2023-04-07T02:18:59.962Z,5.76
2023-04-07T02:19:59.929Z,5.72
2023-04-07T02:20:59.919Z,5.57
2023-04-07T02:21:59.920Z,5.68
2023-04-07T02:22:59.900Z,5.73
2023-04-07T02:23:59.913Z,5.71
2023-04-07T02:24:59.928Z,5.66
2023-04-07T02:25:59.907Z,5.62
2023-04-07T02:26:59.881Z,5.65
2023-04-07T02:27:59.903Z,5.66
2023-04-07T02:28:59.860Z,5.72
2023-04-07T02:29:59.895Z,5.62
2023-04-07T02:30:59.862Z,5.65
2023-04-07T02:31:59.945Z,5.57
2023-04-07T02:32:59.912Z,5.59
2023-04-07T02:33:59.858Z,5.56
2023-04-07T02:34:59.867Z,5.57
2023-04-07T02:35:59.885Z,5.64
2023-04-07T02:36:59.924Z,5.48
2023-04-07T02:37:59.854Z,5.47
2023-04-07T02:38:59.818Z,5.59
2023-04-07T02:39:59.820Z,5.51
2023-04-07T02:40:59.811Z,5.53
2023-04-07T02:41:59.837Z,5.50
2023-04-07T02:42:59.822Z,5.61
2023-04-07T02:43:59.825Z,5.51
2023-04-07T02:44:59.784Z,5.51
2023-04-07T02:45:59.833Z,5.46
2023-04-07T02:46:59.790Z,5.47
2023-04-07T02:47:59.817Z,5.46
2023-04-07T02:48:59.795Z,5.50
2023-04-07T02:49:59.781Z,5.38
2023-04-07T02:50:59.763Z,5.43
2023-04-07T02:51:59.799Z,5.38
2023-04-07T02:52:59.772Z,5.30
2023-04-07T02:53:59.792Z,5.35
2023-04-07T02:54:59.745Z,5.33
2023-04-07T02:55:59.782Z,5.29
2023-04-07T02:56:59.719Z,5.39
2023-04-07T02:57:59.718Z,5.35
2023-04-07T02:58:59.726Z,5.39
2023-04-07T02:59:59.723Z,5.35
2023-04-07T03:00:59.739Z,5.41
2023-04-07T03:01:59.960Z,5.32
2023-04-07T03:02:59.999Z,5.41
2023-04-07T03:03:59.807Z,5.44
2023-04-07T03:04:59.663Z,5.46
2023-04-07T03:05:59.681Z,5.36
2023-04-07T03:06:59.705Z,5.35
2023-04-07T03:07:59.712Z,5.29
2023-04-07T03:08:59.672Z,5.41
2023-04-07T03:09:59.669Z,5.46
2023-04-07T03:10:59.642Z,5.43
2023-04-07T03:11:59.658Z,5.35
2023-04-07T03:12:59.635Z,5.41
2023-04-07T03:13:59.650Z,5.33
2023-04-07T03:14:59.740Z,5.43
2023-04-07T03:15:59.621Z,5.41
2023-04-07T03:16:59.671Z,5.30
2023-04-07T03:17:59.611Z,5.38
2023-04-07T03:18:59.587Z,5.29
2023-04-07T03:19:59.614Z,5.30
2023-04-07T03:20:59.579Z,5.38
2023-04-07T03:21:59.585Z,5.38
2023-04-07T03:22:59.620Z,5.35
2023-04-07T03:23:59.610Z,5.32
2023-04-07T03:24:59.594Z,5.26
2023-04-07T03:25:59.589Z,5.29
2023-04-07T03:26:59.591Z,5.36
2023-04-07T03:27:59.574Z,5.29
2023-04-07T03:28:59.577Z,5.32
2023-04-07T03:29:59.547Z,5.25
2023-04-07T03:30:59.602Z,5.36
2023-04-07T03:31:59.533Z,5.26
2023-04-07T03:32:59.603Z,5.33
2023-04-07T03:33:59.564Z,5.28
2023-04-07T03:34:59.504Z,5.23
2023-04-07T03:35:59.525Z,5.26
2023-04-07T03:36:59.497Z,5.38
2023-04-07T03:37:59.504Z,5.25
2023-04-07T03:38:59.500Z,5.26
2023-04-07T03:39:59.518Z,5.18
2023-04-07T03:40:59.504Z,5.25
2023-04-07T03:41:59.499Z,5.32
2023-04-07T03:42:59.505Z,5.21
2023-04-07T03:43:59.467Z,5.25
2023-04-07T03:44:59.477Z,5.25
2023-04-07T03:45:59.482Z,5.23
2023-04-07T03:46:59.443Z,5.33
2023-04-07T03:47:59.505Z,5.26
2023-04-07T03:48:59.433Z,5.26
2023-04-07T03:49:59.454Z,5.32
2023-04-07T03:50:59.451Z,5.25
2023-04-07T03:51:59.440Z,5.28
2023-04-07T03:52:59.418Z,5.26
2023-04-07T03:53:59.411Z,5.26
2023-04-07T03:54:59.393Z,5.28
2023-04-07T03:55:59.403Z,5.43
2023-04-07T03:56:59.402Z,5.30
2023-04-07T03:57:59.389Z,5.36
2023-04-07T03:58:59.376Z,5.38
2023-04-07T03:59:59.398Z,5.28
2023-04-07T04:00:59.367Z,5.32
2023-04-07T04:01:59.493Z,5.26
2023-04-07T04:02:59.424Z,5.41
2023-04-07T04:03:59.771Z,5.38
2023-04-07T04:04:59.475Z,5.36
2023-04-07T04:05:59.363Z,5.41
2023-04-07T04:06:59.364Z,5.44
2023-04-07T04:07:59.342Z,5.35
2023-04-07T04:08:59.322Z,5.38
2023-04-07T04:09:59.327Z,5.32
2023-04-07T04:10:59.330Z,5.38
2023-04-07T04:11:59.316Z,5.33
2023-04-07T04:12:59.316Z,5.33
2023-04-07T04:13:59.317Z,5.39
2023-04-07T04:14:59.297Z,5.32
2023-04-07T04:15:59.387Z,5.43
2023-04-07T04:16:59.275Z,5.35
2023-04-07T04:17:59.320Z,5.41
2023-04-07T04:18:59.331Z,5.32
2023-04-07T04:19:59.283Z,5.39
2023-04-07T04:20:59.285Z,5.39
2023-04-07T04:21:59.274Z,5.36
2023-04-07T04:22:59.269Z,5.30
2023-04-07T04:23:59.269Z,5.29
2023-04-07T04:24:59.239Z,5.32
2023-04-07T04:25:59.309Z,5.20
2023-04-07T04:26:59.242Z,5.30
2023-04-07T04:27:59.231Z,5.23
2023-04-07T04:28:59.204Z,5.29
2023-04-07T04:29:59.240Z,5.29
2023-04-07T04:30:59.249Z,5.36
2023-04-07T04:31:59.212Z,5.28
2023-04-07T04:32:59.212Z,5.33
2023-04-07T04:33:59.195Z,5.29
2023-04-07T04:34:59.211Z,5.36
2023-04-07T04:35:59.185Z,5.44
2023-04-07T04:36:59.195Z,5.33
2023-04-07T04:37:59.188Z,5.33
2023-04-07T04:38:59.250Z,5.44
2023-04-07T04:39:59.201Z,5.39
2023-04-07T04:40:59.157Z,5.39
2023-04-07T04:41:59.167Z,5.41
2023-04-07T04:42:59.153Z,5.38
2023-04-07T04:43:59.150Z,5.35
2023-04-07T04:44:59.192Z,5.43
2023-04-07T04:45:59.142Z,5.36
2023-04-07T04:46:59.212Z,5.43
2023-04-07T04:47:59.133Z,5.39
2023-04-07T04:48:59.117Z,5.39
2023-04-07T04:49:59.124Z,5.41
2023-04-07T04:50:59.113Z,5.43
2023-04-07T04:51:59.125Z,5.41
2023-04-07T04:52:59.097Z,5.36
2023-04-07T04:53:59.121Z,5.46
2023-04-07T04:54:59.156Z,5.36
2023-04-07T04:55:59.125Z,5.38
2023-04-07T04:56:59.072Z,5.50
2023-04-07T04:57:59.080Z,5.51
2023-04-07T04:58:59.053Z,5.54
2023-04-07T04:59:59.065Z,5.53
2023-04-07T05:00:59.097Z,5.51
2023-04-07T05:01:59.151Z,5.62
2023-04-07T05:02:59.240Z,5.61
2023-04-07T05:03:59.691Z,5.68
2023-04-07T05:04:59.155Z,5.65
2023-04-07T05:05:59.053Z,5.72
2023-04-07T05:06:59.006Z,5.68
2023-04-07T05:07:59.031Z,5.68
2023-04-07T05:08:59.009Z,5.68
2023-04-07T05:09:59.031Z,5.61
2023-04-07T05:10:59.015Z,5.59
2023-04-07T05:11:59.003Z,5.57
2023-04-07T05:12:59.009Z,5.61
2023-04-07T05:13:59.015Z,5.64
2023-04-07T05:14:59.000Z,5.62
2023-04-07T05:15:59.015Z,5.61
2023-04-07T05:16:58.965Z,5.80
2023-04-07T05:17:58.998Z,5.73
2023-04-07T05:18:58.952Z,5.75
2023-04-07T05:19:58.960Z,5.80
2023-04-07T05:20:58.966Z,5.80
2023-04-07T05:21:58.954Z,5.86
2023-04-07T05:22:58.933Z,5.93
2023-04-07T05:23:58.978Z,6.01
2023-04-07T05:24:58.927Z,6.08
2023-04-07T05:25:58.948Z,6.12
2023-04-07T05:26:58.938Z,5.97
2023-04-07T05:27:58.929Z,5.93
2023-04-07T05:28:58.896Z,5.99
2023-04-07T05:29:58.931Z,5.98
2023-04-07T05:30:58.926Z,5.87
2023-04-07T05:31:58.941Z,5.83
2023-04-07T05:32:58.909Z,5.79
2023-04-07T05:33:58.916Z,5.89
2023-04-07T05:34:58.893Z,5.87
2023-04-07T05:35:58.931Z,5.79
2023-04-07T05:36:58.857Z,5.72
2023-04-07T05:37:58.896Z,5.72
2023-04-07T05:38:58.862Z,5.82
2023-04-07T05:39:58.871Z,5.79
2023-04-07T05:40:58.856Z,5.82
2023-04-07T05:41:58.846Z,5.94
2023-04-07T05:42:58.861Z,5.90
2023-04-07T05:43:58.842Z,5.84
2023-04-07T05:44:58.807Z,5.93
2023-04-07T05:45:58.866Z,5.94
2023-04-07T05:46:58.799Z,5.94
2023-04-07T05:47:58.862Z,5.84
2023-04-07T05:49:00.721Z,5.89
2023-04-07T05:49:59.826Z,5.76
2023-04-07T05:50:58.810Z,5.76
2023-04-07T05:51:58.812Z,5.80
2023-04-07T05:52:58.775Z,5.83
2023-04-07T05:53:58.792Z,5.76
2023-04-07T05:54:58.776Z,5.80
2023-04-07T05:55:58.778Z,5.76
2023-04-07T05:56:58.792Z,5.93
2023-04-07T05:57:58.760Z,6.05
2023-04-07T05:58:58.733Z,5.94
2023-04-07T05:59:58.763Z,6.07
2023-04-07T06:00:58.746Z,6.07
2023-04-07T06:01:58.807Z,5.99
2023-04-07T06:02:58.868Z,5.98
2023-04-07T06:03:58.917Z,5.94
2023-04-07T06:04:58.773Z,5.86
2023-04-07T06:05:58.722Z,5.76
2023-04-07T06:06:58.713Z,5.83
2023-04-07T06:07:58.761Z,5.82
2023-04-07T06:08:58.698Z,5.86
2023-04-07T06:09:58.702Z,5.94
2023-04-07T06:10:58.676Z,5.91
2023-04-07T06:11:58.695Z,5.87
2023-04-07T06:12:58.745Z,5.87
2023-04-07T06:13:58.704Z,5.87
2023-04-07T06:14:58.656Z,5.75
2023-04-07T06:15:58.673Z,5.76
2023-04-07T06:16:58.677Z,5.76
2023-04-07T06:17:58.709Z,5.73
2023-04-07T06:18:58.646Z,5.80
2023-04-07T06:19:58.671Z,5.69
2023-04-07T06:20:58.674Z,5.66
2023-04-07T06:21:58.627Z,5.72
2023-04-07T06:22:58.612Z,5.82
2023-04-07T06:23:58.660Z,5.82
2023-04-07T06:24:58.667Z,5.90
2023-04-07T06:25:58.640Z,5.75
2023-04-07T06:26:58.615Z,5.69
2023-04-07T06:27:58.612Z,5.69
2023-04-07T06:28:58.585Z,5.72
2023-04-07T06:29:58.602Z,5.69
2023-04-07T06:30:59.548Z,5.73
2023-04-07T06:31:58.610Z,5.75
2023-04-07T06:32:58.600Z,5.82
2023-04-07T06:33:58.582Z,5.84
2023-04-07T06:34:58.561Z,5.86
2023-04-07T06:35:58.590Z,5.99
2023-04-07T06:36:59.447Z,5.99
2023-04-07T06:37:58.574Z,5.89
2023-04-07T06:38:58.586Z,5.93
2023-04-07T06:39:58.581Z,5.89
2023-04-07T06:40:58.513Z,5.90
2023-04-07T06:41:58.555Z,6.02
2023-04-07T06:42:58.550Z,5.94
2023-04-07T06:43:58.545Z,5.80
2023-04-07T06:44:58.512Z,5.94
2023-04-07T06:45:58.755Z,5.84
2023-04-07T06:46:58.530Z,5.91
2023-04-07T06:47:58.525Z,5.97
2023-04-07T06:48:58.474Z,5.93
2023-04-07T06:49:58.524Z,6.01
2023-04-07T06:50:58.527Z,5.86
2023-04-07T06:51:58.495Z,5.87
2023-04-07T06:52:58.521Z,5.83
2023-04-07T06:53:58.479Z,5.86
2023-04-07T06:54:58.447Z,5.91
2023-04-07T06:55:58.448Z,5.89
2023-04-07T06:56:58.509Z,5.91
2023-04-07T06:57:58.456Z,5.86
2023-04-07T06:58:58.436Z,5.98
2023-04-07T06:59:58.663Z,5.91
2023-04-07T07:00:58.503Z,6.04
2023-04-07T07:01:58.615Z,6.05
2023-04-07T07:02:58.570Z,5.91
2023-04-07T07:03:58.525Z,5.99
2023-04-07T07:04:58.425Z,6.01
2023-04-07T07:05:58.409Z,5.91
2023-04-07T07:06:58.433Z,5.93
2023-04-07T07:07:58.405Z,5.97
2023-04-07T07:08:58.393Z,6.04
2023-04-07T07:09:58.412Z,5.99
2023-04-07T07:10:58.414Z,6.09
2023-04-07T07:11:58.405Z,5.94
2023-04-07T07:12:58.368Z,6.05
2023-04-07T07:13:58.403Z,5.99
2023-04-07T07:14:58.351Z,6.08
2023-04-07T07:15:58.447Z,6.17
2023-04-07T07:16:58.385Z,6.12
2023-04-07T07:17:58.516Z,6.19
2023-04-07T07:18:58.344Z,6.11
2023-04-07T07:19:58.344Z,6.33
2023-04-07T07:20:58.343Z,6.33
2023-04-07T07:21:58.335Z,6.26
2023-04-07T07:22:58.330Z,6.20
2023-04-07T07:23:58.351Z,6.44
2023-04-07T07:24:58.341Z,6.41
2023-04-07T07:25:58.314Z,6.36
2023-04-07T07:26:58.297Z,6.45
2023-04-07T07:27:58.309Z,6.27
2023-04-07T07:28:58.281Z,6.24
2023-04-07T07:29:58.315Z,6.22
2023-04-07T07:30:58.304Z,6.24
2023-04-07T07:31:58.285Z,6.22
2023-04-07T07:32:58.304Z,6.05
2023-04-07T07:33:58.297Z,6.04
2023-04-07T07:34:58.255Z,6.12
2023-04-07T07:35:58.327Z,6.24
2023-04-07T07:36:58.236Z,6.26
2023-04-07T07:37:58.262Z,6.20
2023-04-07T07:38:58.231Z,6.20
2023-04-07T07:39:58.259Z,6.49
2023-04-07T07:40:58.211Z,6.35
2023-04-07T07:41:58.251Z,6.19
2023-04-07T07:42:58.203Z,6.28
2023-04-07T07:43:58.255Z,6.46
2023-04-07T07:44:58.196Z,6.42
2023-04-07T07:45:58.268Z,6.54
2023-04-07T07:46:58.175Z,6.42
2023-04-07T07:47:58.255Z,6.38
2023-04-07T07:48:58.174Z,6.41
2023-04-07T07:49:58.193Z,6.45
2023-04-07T07:50:58.175Z,6.35
2023-04-07T07:51:58.206Z,6.44
2023-04-07T07:52:58.171Z,6.38
2023-04-07T07:53:58.183Z,6.44
2023-04-07T07:54:58.155Z,6.45
2023-04-07T07:55:58.192Z,6.52
2023-04-07T07:56:58.134Z,6.44
2023-04-07T07:57:58.163Z,6.46
2023-04-07T07:58:58.415Z,6.51
2023-04-07T07:59:58.138Z,6.41
2023-04-07T08:00:58.142Z,6.42
2023-04-07T08:01:58.126Z,6.38
2023-04-07T08:02:58.230Z,6.22
2023-04-07T08:03:58.310Z,6.36
2023-04-07T08:04:58.248Z,6.38
2023-04-07T08:05:58.673Z,6.17
2023-04-07T08:06:58.091Z,6.20
2023-04-07T08:07:58.132Z,6.19
2023-04-07T08:08:58.081Z,6.20
2023-04-07T08:09:58.082Z,6.11
2023-04-07T08:10:58.049Z,6.20
2023-04-07T08:11:58.064Z,6.35
2023-04-07T08:12:58.046Z,6.28
2023-04-07T08:13:58.081Z,6.31
2023-04-07T08:14:58.054Z,6.26
2023-04-07T08:15:58.091Z,6.19
2023-04-07T08:16:58.029Z,6.12
2023-04-07T08:17:58.040Z,6.24
2023-04-07T08:18:58.036Z,6.52
2023-04-07T08:19:58.033Z,6.31
2023-04-07T08:20:58.005Z,6.46
2023-04-07T08:21:58.621Z,6.52
2023-04-07T08:22:57.983Z,6.56
2023-04-07T08:23:58.024Z,6.42
2023-04-07T08:24:57.996Z,6.54
2023-04-07T08:25:58.029Z,6.54
2023-04-07T08:26:58.020Z,6.64
2023-04-07T08:27:57.981Z,6.60
2023-04-07T08:28:58.027Z,6.78
2023-04-07T08:29:57.996Z,6.89
2023-04-07T08:30:57.945Z,6.92
2023-04-07T08:31:58.031Z,6.74
2023-04-07T08:32:58.003Z,6.56
2023-04-07T08:33:57.963Z,6.48
2023-04-07T08:34:57.975Z,6.45
2023-04-07T08:35:57.970Z,6.45
2023-04-07T08:36:57.919Z,6.42
2023-04-07T08:37:57.942Z,6.48
2023-04-07T08:38:57.946Z,6.52
2023-04-07T08:39:57.965Z,6.49
2023-04-07T08:40:57.896Z,6.46
2023-04-07T08:41:57.925Z,6.64
2023-04-07T08:42:57.912Z,6.60
2023-04-07T08:43:57.902Z,6.60
2023-04-07T08:44:58.425Z,6.52
2023-04-07T08:45:57.902Z,6.66
2023-04-07T08:46:57.903Z,6.77
2023-04-07T08:47:57.925Z,6.85
2023-04-07T08:48:57.868Z,6.84
2023-04-07T08:49:57.863Z,6.97
2023-04-07T08:50:57.858Z,6.92
2023-04-07T08:51:57.877Z,6.92
2023-04-07T08:52:57.839Z,7.05
2023-04-07T08:53:57.873Z,7.03
2023-04-07T08:54:57.850Z,7.13
2023-04-07T08:55:57.832Z,7.07
2023-04-07T08:56:57.866Z,7.14
2023-04-07T08:57:58.668Z,7.21
2023-04-07T08:58:57.824Z,7.17
2023-04-07T08:59:57.818Z,7.13
2023-04-07T09:00:57.868Z,7.17
2023-04-07T09:01:57.849Z,7.31
2023-04-07T09:02:57.851Z,7.53
2023-04-07T09:03:57.835Z,7.82
2023-04-07T09:04:57.852Z,8.20
2023-04-07T09:05:57.786Z,8.34
2023-04-07T09:06:57.768Z,8.60
2023-04-07T09:07:57.774Z,8.79
2023-04-07T09:08:57.750Z,8.79
2023-04-07T09:09:57.778Z,8.97
2023-04-07T09:10:57.767Z,8.71
2023-04-07T09:11:57.755Z,8.38
2023-04-07T09:12:57.717Z,8.28
2023-04-07T09:13:57.754Z,8.36
2023-04-07T09:14:57.717Z,8.13
2023-04-07T09:15:57.737Z,8.01
2023-04-07T09:16:57.818Z,8.27
2023-04-07T09:17:57.757Z,8.66
2023-04-07T09:18:57.714Z,8.82
2023-04-07T09:19:57.699Z,8.63
2023-04-07T09:20:57.804Z,8.20
2023-04-07T09:21:57.711Z,7.66
2023-04-07T09:22:57.671Z,7.29
2023-04-07T09:23:57.693Z,7.42
2023-04-07T09:24:57.686Z,7.61
2023-04-07T09:25:57.661Z,7.50
2023-04-07T09:26:57.649Z,7.50
2023-04-07T09:27:57.670Z,7.53
2023-04-07T09:28:57.645Z,7.69
2023-04-07T09:29:57.671Z,7.70
2023-04-07T09:30:57.630Z,7.82
2023-04-07T09:31:57.688Z,7.91
2023-04-07T09:32:57.671Z,8.06
2023-04-07T09:33:57.643Z,8.08
2023-04-07T09:34:57.590Z,8.13
2023-04-07T09:35:57.683Z,8.09
2023-04-07T09:36:57.589Z,8.37
2023-04-07T09:37:57.689Z,8.64
2023-04-07T09:38:57.616Z,8.84
2023-04-07T09:39:57.589Z,8.81
2023-04-07T09:40:57.586Z,8.64
2023-04-07T09:41:57.624Z,8.66
2023-04-07T09:42:57.557Z,8.91
2023-04-07T09:43:57.588Z,8.99
2023-04-07T09:44:57.559Z,9.21
2023-04-07T09:45:57.634Z,8.95
2023-04-07T09:46:57.597Z,9.02
2023-04-07T09:47:57.574Z,9.51
2023-04-07T09:48:57.554Z,10.02
2023-04-07T09:49:57.636Z,9.94
2023-04-07T09:50:57.553Z,9.86
2023-04-07T09:51:57.526Z,9.50
2023-04-07T09:52:57.490Z,9.39
2023-04-07T09:53:57.508Z,9.36
2023-04-07T09:54:57.540Z,9.34
2023-04-07T09:55:57.551Z,9.08
2023-04-07T09:56:57.465Z,9.16
2023-04-07T09:57:57.483Z,9.40
2023-04-07T09:58:57.459Z,9.80
2023-04-07T09:59:57.483Z,9.66
2023-04-07T10:00:57.517Z,9.50
2023-04-07T10:01:57.659Z,9.61
2023-04-07T10:02:57.539Z,9.55
2023-04-07T10:03:57.517Z,9.31
2023-04-07T10:04:57.452Z,8.95
2023-04-07T10:05:57.471Z,8.84
2023-04-07T10:06:57.404Z,9.47
2023-04-07T10:07:57.453Z,9.99
2023-04-07T10:08:57.406Z,10.57
2023-04-07T10:09:57.415Z,11.00
2023-04-07T10:10:57.393Z,11.50
2023-04-07T10:11:57.417Z,12.53
2023-04-07T10:12:57.390Z,13.52
2023-04-07T10:13:57.374Z,14.00
2023-04-07T10:14:57.368Z,13.96
2023-04-07T10:15:57.373Z,14.07
2023-04-07T10:16:57.504Z,14.20
2023-04-07T10:17:57.453Z,13.54
2023-04-07T10:18:57.359Z,12.02
2023-04-07T10:19:57.361Z,11.40
2023-04-07T10:20:57.330Z,11.04
2023-04-07T10:21:57.355Z,10.90
2023-04-07T10:22:57.296Z,10.61
2023-04-07T10:23:57.333Z,10.67
2023-04-07T10:24:57.289Z,10.60
2023-04-07T10:25:57.318Z,10.67
2023-04-07T10:26:57.262Z,10.25
2023-04-07T10:27:57.265Z,10.10
2023-04-07T10:28:57.269Z,10.37
2023-04-07T10:29:57.293Z,10.72
2023-04-07T10:30:57.302Z,11.07
2023-04-07T10:31:57.252Z,11.43
2023-04-07T10:32:57.284Z,11.51
2023-04-07T10:33:57.249Z,11.40
2023-04-07T10:34:57.203Z,11.43
2023-04-07T10:35:59.583Z,11.75
2023-04-07T10:36:57.221Z,11.91
2023-04-07T10:37:57.269Z,12.04
2023-04-07T10:38:57.173Z,12.12
2023-04-07T10:39:57.192Z,12.62
2023-04-07T10:40:57.187Z,12.79
2023-04-07T10:41:57.196Z,12.55
2023-04-07T10:42:57.145Z,12.95
2023-04-07T10:43:57.167Z,13.00
2023-04-07T10:44:57.136Z,11.63
2023-04-07T10:45:57.248Z,10.78
2023-04-07T10:46:57.123Z,10.93
2023-04-07T10:47:57.149Z,11.52
2023-04-07T10:48:57.133Z,11.77
2023-04-07T10:49:57.117Z,11.60
2023-04-07T10:50:57.086Z,11.84
2023-04-07T10:51:57.118Z,11.87
2023-04-07T10:52:57.094Z,11.83
2023-04-07T10:53:57.112Z,11.86
2023-04-07T10:54:57.067Z,11.45
2023-04-07T10:55:57.106Z,11.26
2023-04-07T10:56:57.067Z,11.57
2023-04-07T10:57:57.072Z,11.80
2023-04-07T10:58:57.048Z,12.00
2023-04-07T10:59:58.735Z,12.25
2023-04-07T11:00:57.074Z,12.24
2023-04-07T11:01:57.120Z,11.72
2023-04-07T11:02:57.206Z,11.68
2023-04-07T11:03:57.181Z,11.87
2023-04-07T11:04:56.992Z,12.46
2023-04-07T11:05:57.047Z,13.00
2023-04-07T11:06:56.998Z,13.04
2023-04-07T11:07:56.980Z,13.25
2023-04-07T11:08:56.999Z,13.62
2023-04-07T11:09:56.976Z,13.72
2023-04-07T11:10:56.950Z,13.83
2023-04-07T11:11:56.983Z,13.92
2023-04-07T11:12:56.920Z,13.90
2023-04-07T11:13:56.931Z,13.53
2023-04-07T11:14:56.937Z,13.85
2023-04-07T11:15:57.023Z,13.49
2023-04-07T11:16:56.906Z,13.99
2023-04-07T11:17:56.962Z,14.62
2023-04-07T11:18:56.864Z,14.96
2023-04-07T11:19:56.900Z,14.18
2023-04-07T11:20:56.857Z,14.03
2023-04-07T11:21:56.858Z,13.46
2023-04-07T11:22:56.835Z,12.90
2023-04-07T11:23:56.935Z,13.20
2023-04-07T11:24:56.823Z,13.59
2023-04-07T11:25:56.848Z,13.15
2023-04-07T11:26:56.820Z,13.19
2023-04-07T11:27:56.828Z,13.16
2023-04-07T11:28:56.819Z,13.18
2023-04-07T11:29:56.796Z,13.12
2023-04-07T11:30:56.797Z,12.78
2023-04-07T11:31:56.796Z,12.07
2023-04-07T11:32:56.811Z,12.64
2023-04-07T11:33:56.779Z,13.52
2023-04-07T11:34:56.741Z,14.41
2023-04-07T11:35:56.861Z,15.10
2023-04-07T11:36:56.732Z,15.29
2023-04-07T11:37:56.754Z,14.70
2023-04-07T11:38:56.698Z,14.88
2023-04-07T11:39:56.740Z,14.45
2023-04-07T11:40:56.686Z,14.15
2023-04-07T11:41:56.706Z,13.75
2023-04-07T11:42:56.672Z,14.35
2023-04-07T11:43:56.676Z,14.63
2023-04-07T11:44:56.704Z,14.88
2023-04-07T11:45:56.690Z,14.70
2023-04-07T11:46:56.715Z,14.63
2023-04-07T11:47:56.672Z,14.60
2023-04-07T11:48:56.616Z,14.63
2023-04-07T11:49:56.638Z,14.20
2023-04-07T11:50:56.635Z,14.12
2023-04-07T11:51:56.635Z,14.08
2023-04-07T11:52:56.607Z,14.29
2023-04-07T11:53:56.600Z,14.69
2023-04-07T11:54:56.564Z,14.41
2023-04-07T11:55:56.608Z,13.90
2023-04-07T11:56:56.547Z,14.26
2023-04-07T11:57:56.597Z,14.85
2023-04-07T11:58:56.534Z,15.33
2023-04-07T11:59:56.533Z,15.52
2023-04-07T12:00:56.526Z,15.70
2023-04-07T12:01:57.819Z,14.97
2023-04-07T12:02:56.674Z,13.95
2023-04-07T12:03:56.713Z,14.59
2023-04-07T12:04:56.487Z,14.97
2023-04-07T12:05:56.507Z,14.86
2023-04-07T12:06:56.478Z,14.30
2023-04-07T12:07:56.470Z,13.67
2023-04-07T12:08:56.459Z,13.81
2023-04-07T12:09:56.469Z,14.41
2023-04-07T12:10:56.434Z,15.06
2023-04-07T12:11:56.465Z,15.59
2023-04-07T12:12:57.556Z,15.55
2023-04-07T12:13:56.426Z,15.33
2023-04-07T12:14:56.437Z,15.51
2023-04-07T12:15:56.428Z,15.82
2023-04-07T12:16:56.528Z,16.21
2023-04-07T12:17:56.424Z,15.95
2023-04-07T12:18:56.379Z,16.04
2023-04-07T12:19:56.417Z,15.67
2023-04-07T12:20:56.359Z,15.31
2023-04-07T12:21:56.421Z,14.94
2023-04-07T12:22:56.341Z,15.00
2023-04-07T12:23:56.358Z,15.31
2023-04-07T12:24:56.328Z,15.19
2023-04-07T12:25:56.387Z,14.60
2023-04-07T12:26:56.339Z,14.54
2023-04-07T12:27:56.373Z,14.69
2023-04-07T12:28:56.307Z,14.14
2023-04-07T12:29:56.321Z,14.12
2023-04-07T12:30:56.288Z,14.07
2023-04-07T12:31:56.434Z,13.74
2023-04-07T12:32:56.311Z,13.75
2023-04-07T12:33:56.279Z,14.15
2023-04-07T12:34:56.258Z,14.81
2023-04-07T12:35:56.307Z,14.60
2023-04-07T12:36:56.259Z,14.66
2023-04-07T12:37:56.301Z,14.82
2023-04-07T12:38:56.276Z,14.68
2023-04-07T12:39:56.238Z,14.82
2023-04-07T12:40:56.220Z,14.43
2023-04-07T12:41:56.252Z,13.70
2023-04-07T12:42:56.196Z,14.22
2023-04-07T12:43:56.210Z,13.72
2023-04-07T12:44:56.209Z,13.72
2023-04-07T12:45:56.296Z,13.72
2023-04-07T12:46:56.180Z,13.50
2023-04-07T12:47:56.213Z,14.47
2023-04-07T12:48:56.158Z,15.04
2023-04-07T12:49:56.148Z,15.46
2023-04-07T12:50:56.142Z,15.46
2023-04-07T12:51:56.140Z,14.92
2023-04-07T12:52:56.117Z,13.97
2023-04-07T12:53:56.155Z,13.22
2023-04-07T12:54:56.124Z,13.54
2023-04-07T12:55:56.106Z,14.37
2023-04-07T12:56:56.078Z,15.22
2023-04-07T12:57:56.127Z,14.69
2023-04-07T12:58:56.072Z,14.62
2023-04-07T12:59:56.064Z,14.79
2023-04-07T13:00:56.086Z,15.15
2023-04-07T13:01:56.166Z,15.24
2023-04-07T13:02:56.085Z,14.50
2023-04-07T13:03:56.157Z,14.29
2023-04-07T13:04:56.008Z,14.26
2023-04-07T13:05:56.019Z,14.37
2023-04-07T13:06:55.991Z,14.48
2023-04-07T13:07:56.019Z,14.62
2023-04-07T13:08:56.045Z,14.99
2023-04-07T13:09:55.991Z,15.67
2023-04-07T13:10:55.962Z,16.16
2023-04-07T13:11:55.964Z,16.33